sensor_id;sensor_type;location;lat;lon;timestamp;P1;durP1;ratioP1;P2;durP2;ratioP2
8319;SDS011;4197;42.130;24.746;2023-01-10T00:00:20;106.73;;;45.10;;
8319;SDS011;4197;42.130;24.746;2023-01-10T00:02:50;105.30;;;46.47;;
8319;SDS011;4197;42.130;24.746;2023-01-10T00:05:19;105.73;;;45.37;;
8319;SDS011;4197;42.130;24.746;2023-01-10T00:07:47;106.57;;;47.80;;
8319;SDS011;4197;42.130;24.746;2023-01-10T00:10:15;115.27;;;49.40;;
8319;SDS011;4197;42.130;24.746;2023-01-10T00:12:43;112.93;;;47.63;;
8319;SDS011;4197;42.130;24.746;2023-01-10T00:15:30;105.53;;;47.17;;
8319;SDS011;4197;42.130;24.746;2023-01-10T00:18:00;116.13;;;48.70;;
8319;SDS011;4197;42.130;24.746;2023-01-10T00:20:28;111.17;;;50.93;;
8319;SDS011;4197;42.130;24.746;2023-01-10T00:22:56;112.73;;;48.77;;
8319;SDS011;4197;42.130;24.746;2023-01-10T00:25:27;116.37;;;48.47;;
8319;SDS011;4197;42.130;24.746;2023-01-10T00:27:55;109.57;;;47.03;;
8319;SDS011;4197;42.130;24.746;2023-01-10T00:30:28;102.93;;;47.63;;
8319;SDS011;4197;42.130;24.746;2023-01-10T00:32:56;104.80;;;50.07;;
8319;SDS011;4197;42.130;24.746;2023-01-10T00:35:26;119.43;;;49.10;;
8319;SDS011;4197;42.130;24.746;2023-01-10T00:37:54;116.97;;;50.03;;
8319;SDS011;4197;42.130;24.746;2023-01-10T00:40:31;123.67;;;50.40;;
8319;SDS011;4197;42.130;24.746;2023-01-10T00:43:00;110.27;;;47.67;;
8319;SDS011;4197;42.130;24.746;2023-01-10T00:45:46;118.20;;;48.90;;
8319;SDS011;4197;42.130;24.746;2023-01-10T00:48:14;122.30;;;49.30;;
8319;SDS011;4197;42.130;24.746;2023-01-10T00:50:44;115.60;;;48.83;;
8319;SDS011;4197;42.130;24.746;2023-01-10T00:53:12;113.10;;;49.13;;
8319;SDS011;4197;42.130;24.746;2023-01-10T00:55:41;111.83;;;46.40;;
8319;SDS011;4197;42.130;24.746;2023-01-10T00:58:09;116.33;;;47.87;;
8319;SDS011;4197;42.130;24.746;2023-01-10T01:00:39;101.03;;;48.50;;
8319;SDS011;4197;42.130;24.746;2023-01-10T01:03:07;117.60;;;46.77;;
8319;SDS011;4197;42.130;24.746;2023-01-10T01:05:38;112.83;;;48.43;;
8319;SDS011;4197;42.130;24.746;2023-01-10T01:08:08;111.83;;;46.40;;
8319;SDS011;4197;42.130;24.746;2023-01-10T01:10:38;112.20;;;45.13;;
8319;SDS011;4197;42.130;24.746;2023-01-10T01:13:07;109.17;;;46.73;;
8319;SDS011;4197;42.130;24.746;2023-01-10T01:15:36;114.03;;;47.50;;
8319;SDS011;4197;42.130;24.746;2023-01-10T01:18:05;107.27;;;47.00;;
8319;SDS011;4197;42.130;24.746;2023-01-10T01:20:34;106.30;;;45.00;;
8319;SDS011;4197;42.130;24.746;2023-01-10T01:23:05;102.63;;;43.67;;
8319;SDS011;4197;42.130;24.746;2023-01-10T01:25:34;97.67;;;45.73;;
8319;SDS011;4197;42.130;24.746;2023-01-10T01:28:02;91.70;;;45.03;;
8319;SDS011;4197;42.130;24.746;2023-01-10T01:30:31;102.93;;;46.13;;
8319;SDS011;4197;42.130;24.746;2023-01-10T01:32:59;114.07;;;48.03;;
8319;SDS011;4197;42.130;24.746;2023-01-10T01:35:27;104.67;;;43.60;;
8319;SDS011;4197;42.130;24.746;2023-01-10T01:37:55;97.93;;;44.60;;
8319;SDS011;4197;42.130;24.746;2023-01-10T01:40:24;101.10;;;45.87;;
8319;SDS011;4197;42.130;24.746;2023-01-10T01:42:54;105.77;;;47.27;;
8319;SDS011;4197;42.130;24.746;2023-01-10T01:45:33;105.80;;;46.97;;
8319;SDS011;4197;42.130;24.746;2023-01-10T01:48:08;114.90;;;47.73;;
8319;SDS011;4197;42.130;24.746;2023-01-10T01:50:43;113.10;;;46.50;;
8319;SDS011;4197;42.130;24.746;2023-01-10T01:53:16;104.20;;;45.23;;
8319;SDS011;4197;42.130;24.746;2023-01-10T01:55:49;100.47;;;45.70;;
8319;SDS011;4197;42.130;24.746;2023-01-10T01:58:21;105.90;;;48.20;;
8319;SDS011;4197;42.130;24.746;2023-01-10T02:00:55;98.53;;;46.67;;
8319;SDS011;4197;42.130;24.746;2023-01-10T02:03:24;96.93;;;46.97;;
8319;SDS011;4197;42.130;24.746;2023-01-10T02:05:54;107.43;;;50.17;;
8319;SDS011;4197;42.130;24.746;2023-01-10T02:08:22;97.20;;;48.50;;
8319;SDS011;4197;42.130;24.746;2023-01-10T02:10:52;96.67;;;49.20;;
8319;SDS011;4197;42.130;24.746;2023-01-10T02:13:27;102.70;;;49.27;;
8319;SDS011;4197;42.130;24.746;2023-01-10T02:15:57;104.20;;;48.83;;
8319;SDS011;4197;42.130;24.746;2023-01-10T02:18:26;109.77;;;47.20;;
8319;SDS011;4197;42.130;24.746;2023-01-10T02:21:11;92.27;;;45.63;;
8319;SDS011;4197;42.130;24.746;2023-01-10T02:23:59;104.60;;;48.03;;
8319;SDS011;4197;42.130;24.746;2023-01-10T02:27:00;96.50;;;46.87;;
8319;SDS011;4197;42.130;24.746;2023-01-10T02:32:56;106.83;;;47.90;;
8319;SDS011;4197;42.130;24.746;2023-01-10T02:38:35;105.53;;;47.13;;
8319;SDS011;4197;42.130;24.746;2023-01-10T02:41:15;112.53;;;49.77;;
8319;SDS011;4197;42.130;24.746;2023-01-10T02:43:52;102.23;;;47.80;;
8319;SDS011;4197;42.130;24.746;2023-01-10T02:46:26;108.23;;;49.13;;
8319;SDS011;4197;42.130;24.746;2023-01-10T02:48:57;104.43;;;48.03;;
8319;SDS011;4197;42.130;24.746;2023-01-10T02:51:26;105.20;;;47.87;;
8319;SDS011;4197;42.130;24.746;2023-01-10T02:53:56;102.43;;;50.03;;
8319;SDS011;4197;42.130;24.746;2023-01-10T02:56:33;119.43;;;52.07;;
8319;SDS011;4197;42.130;24.746;2023-01-10T02:59:22;116.67;;;51.07;;
8319;SDS011;4197;42.130;24.746;2023-01-10T03:02:10;118.63;;;51.13;;
8319;SDS011;4197;42.130;24.746;2023-01-10T03:04:49;103.23;;;47.40;;
8319;SDS011;4197;42.130;24.746;2023-01-10T03:07:24;125.10;;;53.07;;
8319;SDS011;4197;42.130;24.746;2023-01-10T03:10:00;117.37;;;54.10;;
8319;SDS011;4197;42.130;24.746;2023-01-10T03:12:38;128.37;;;53.50;;
8319;SDS011;4197;42.130;24.746;2023-01-10T03:15:14;122.77;;;52.73;;
8319;SDS011;4197;42.130;24.746;2023-01-10T03:17:48;132.90;;;53.97;;
8319;SDS011;4197;42.130;24.746;2023-01-10T03:20:22;123.97;;;51.40;;
8319;SDS011;4197;42.130;24.746;2023-01-10T03:22:51;120.07;;;53.27;;
8319;SDS011;4197;42.130;24.746;2023-01-10T03:25:23;137.37;;;52.10;;
8319;SDS011;4197;42.130;24.746;2023-01-10T03:27:59;138.90;;;52.70;;
8319;SDS011;4197;42.130;24.746;2023-01-10T03:30:36;137.53;;;52.37;;
8319;SDS011;4197;42.130;24.746;2023-01-10T03:33:11;129.23;;;51.03;;
8319;SDS011;4197;42.130;24.746;2023-01-10T03:35:46;125.43;;;51.00;;
8319;SDS011;4197;42.130;24.746;2023-01-10T03:38:25;132.30;;;55.30;;
8319;SDS011;4197;42.130;24.746;2023-01-10T03:41:04;131.13;;;54.17;;
8319;SDS011;4197;42.130;24.746;2023-01-10T03:43:39;137.23;;;52.03;;
8319;SDS011;4197;42.130;24.746;2023-01-10T03:46:31;136.47;;;54.93;;
8319;SDS011;4197;42.130;24.746;2023-01-10T03:49:04;123.70;;;52.13;;
8319;SDS011;4197;42.130;24.746;2023-01-10T03:51:36;130.13;;;55.37;;
8319;SDS011;4197;42.130;24.746;2023-01-10T03:54:06;138.33;;;53.43;;
8319;SDS011;4197;42.130;24.746;2023-01-10T03:56:44;130.07;;;53.13;;
8319;SDS011;4197;42.130;24.746;2023-01-10T03:59:13;125.83;;;51.63;;
8319;SDS011;4197;42.130;24.746;2023-01-10T04:01:41;132.83;;;55.17;;
8319;SDS011;4197;42.130;24.746;2023-01-10T04:04:10;128.87;;;53.27;;
8319;SDS011;4197;42.130;24.746;2023-01-10T04:06:39;135.03;;;52.87;;
8319;SDS011;4197;42.130;24.746;2023-01-10T04:09:08;130.67;;;55.10;;
8319;SDS011;4197;42.130;24.746;2023-01-10T04:11:36;125.93;;;52.33;;
8319;SDS011;4197;42.130;24.746;2023-01-10T04:14:04;128.47;;;54.37;;
8319;SDS011;4197;42.130;24.746;2023-01-10T04:16:34;134.60;;;55.27;;
8319;SDS011;4197;42.130;24.746;2023-01-10T04:19:02;127.83;;;53.40;;
8319;SDS011;4197;42.130;24.746;2023-01-10T04:21:30;139.27;;;56.43;;
8319;SDS011;4197;42.130;24.746;2023-01-10T04:24:00;131.63;;;55.43;;
8319;SDS011;4197;42.130;24.746;2023-01-10T04:26:28;126.07;;;54.27;;
8319;SDS011;4197;42.130;24.746;2023-01-10T04:28:56;126.47;;;54.83;;
8319;SDS011;4197;42.130;24.746;2023-01-10T04:31:24;133.30;;;56.07;;
8319;SDS011;4197;42.130;24.746;2023-01-10T04:33:52;136.70;;;55.20;;
8319;SDS011;4197;42.130;24.746;2023-01-10T04:36:20;137.37;;;54.00;;
8319;SDS011;4197;42.130;24.746;2023-01-10T04:38:48;135.50;;;56.20;;
8319;SDS011;4197;42.130;24.746;2023-01-10T04:41:18;125.17;;;56.63;;
8319;SDS011;4197;42.130;24.746;2023-01-10T04:43:46;119.17;;;53.90;;
8319;SDS011;4197;42.130;24.746;2023-01-10T04:46:15;122.13;;;53.03;;
8319;SDS011;4197;42.130;24.746;2023-01-10T04:48:43;130.93;;;54.93;;
8319;SDS011;4197;42.130;24.746;2023-01-10T04:51:11;131.67;;;55.57;;
8319;SDS011;4197;42.130;24.746;2023-01-10T04:53:40;135.57;;;57.90;;
8319;SDS011;4197;42.130;24.746;2023-01-10T04:56:08;135.43;;;55.00;;
8319;SDS011;4197;42.130;24.746;2023-01-10T04:58:44;121.53;;;53.13;;
8319;SDS011;4197;42.130;24.746;2023-01-10T05:01:14;124.43;;;60.60;;
8319;SDS011;4197;42.130;24.746;2023-01-10T05:03:45;138.07;;;59.33;;
8319;SDS011;4197;42.130;24.746;2023-01-10T05:06:14;134.83;;;61.70;;
8319;SDS011;4197;42.130;24.746;2023-01-10T05:08:42;128.00;;;55.37;;
8319;SDS011;4197;42.130;24.746;2023-01-10T05:11:11;135.37;;;57.57;;
8319;SDS011;4197;42.130;24.746;2023-01-10T05:13:39;143.17;;;60.57;;
8319;SDS011;4197;42.130;24.746;2023-01-10T05:16:09;132.00;;;56.87;;
8319;SDS011;4197;42.130;24.746;2023-01-10T05:18:37;131.47;;;56.97;;
8319;SDS011;4197;42.130;24.746;2023-01-10T05:21:06;136.47;;;57.17;;
8319;SDS011;4197;42.130;24.746;2023-01-10T05:23:36;130.70;;;57.47;;
8319;SDS011;4197;42.130;24.746;2023-01-10T05:26:05;127.90;;;55.33;;
8319;SDS011;4197;42.130;24.746;2023-01-10T05:28:34;136.53;;;55.10;;
8319;SDS011;4197;42.130;24.746;2023-01-10T05:31:04;138.00;;;57.23;;
8319;SDS011;4197;42.130;24.746;2023-01-10T05:33:34;138.60;;;57.53;;
8319;SDS011;4197;42.130;24.746;2023-01-10T05:36:03;135.63;;;56.37;;
8319;SDS011;4197;42.130;24.746;2023-01-10T05:38:33;134.83;;;56.23;;
8319;SDS011;4197;42.130;24.746;2023-01-10T05:41:01;133.27;;;56.10;;
8319;SDS011;4197;42.130;24.746;2023-01-10T05:43:29;145.17;;;57.20;;
8319;SDS011;4197;42.130;24.746;2023-01-10T05:45:57;138.20;;;58.00;;
8319;SDS011;4197;42.130;24.746;2023-01-10T05:48:26;146.67;;;58.10;;
8319;SDS011;4197;42.130;24.746;2023-01-10T05:50:55;145.03;;;58.17;;
8319;SDS011;4197;42.130;24.746;2023-01-10T05:53:25;148.17;;;61.40;;
8319;SDS011;4197;42.130;24.746;2023-01-10T05:55:54;135.47;;;55.80;;
8319;SDS011;4197;42.130;24.746;2023-01-10T05:58:26;145.53;;;57.27;;
8319;SDS011;4197;42.130;24.746;2023-01-10T06:00:55;152.93;;;58.47;;
8319;SDS011;4197;42.130;24.746;2023-01-10T06:03:24;144.80;;;58.53;;
8319;SDS011;4197;42.130;24.746;2023-01-10T06:05:53;146.97;;;60.97;;
8319;SDS011;4197;42.130;24.746;2023-01-10T06:08:23;155.93;;;58.80;;
8319;SDS011;4197;42.130;24.746;2023-01-10T06:10:51;154.43;;;60.00;;
8319;SDS011;4197;42.130;24.746;2023-01-10T06:13:19;151.57;;;59.40;;
8319;SDS011;4197;42.130;24.746;2023-01-10T06:15:48;152.10;;;56.50;;
8319;SDS011;4197;42.130;24.746;2023-01-10T06:18:18;150.90;;;57.40;;
8319;SDS011;4197;42.130;24.746;2023-01-10T06:20:46;155.00;;;58.13;;
8319;SDS011;4197;42.130;24.746;2023-01-10T06:23:14;164.13;;;61.33;;
8319;SDS011;4197;42.130;24.746;2023-01-10T06:25:44;154.93;;;59.97;;
8319;SDS011;4197;42.130;24.746;2023-01-10T06:28:13;148.27;;;59.37;;
8319;SDS011;4197;42.130;24.746;2023-01-10T06:30:41;150.73;;;58.13;;
8319;SDS011;4197;42.130;24.746;2023-01-10T06:33:10;167.03;;;59.73;;
8319;SDS011;4197;42.130;24.746;2023-01-10T06:35:39;167.80;;;60.97;;
8319;SDS011;4197;42.130;24.746;2023-01-10T06:38:08;174.03;;;62.20;;
8319;SDS011;4197;42.130;24.746;2023-01-10T06:40:36;167.83;;;57.80;;
8319;SDS011;4197;42.130;24.746;2023-01-10T06:43:05;160.57;;;59.30;;
8319;SDS011;4197;42.130;24.746;2023-01-10T06:45:34;169.53;;;58.93;;
8319;SDS011;4197;42.130;24.746;2023-01-10T06:48:02;165.67;;;61.20;;
8319;SDS011;4197;42.130;24.746;2023-01-10T06:50:31;187.80;;;65.33;;
8319;SDS011;4197;42.130;24.746;2023-01-10T06:53:00;170.33;;;62.97;;
8319;SDS011;4197;42.130;24.746;2023-01-10T06:55:30;170.37;;;63.40;;
8319;SDS011;4197;42.130;24.746;2023-01-10T06:57:59;181.20;;;65.80;;
8319;SDS011;4197;42.130;24.746;2023-01-10T07:00:30;174.00;;;64.37;;
8319;SDS011;4197;42.130;24.746;2023-01-10T07:02:59;168.50;;;64.60;;
8319;SDS011;4197;42.130;24.746;2023-01-10T07:05:28;195.17;;;66.47;;
8319;SDS011;4197;42.130;24.746;2023-01-10T07:07:56;174.07;;;65.57;;
8319;SDS011;4197;42.130;24.746;2023-01-10T07:10:26;182.33;;;67.73;;
8319;SDS011;4197;42.130;24.746;2023-01-10T07:12:55;216.37;;;74.13;;
8319;SDS011;4197;42.130;24.746;2023-01-10T07:15:23;212.80;;;73.37;;
8319;SDS011;4197;42.130;24.746;2023-01-10T07:17:53;208.47;;;71.63;;
8319;SDS011;4197;42.130;24.746;2023-01-10T07:20:23;221.20;;;73.90;;
8319;SDS011;4197;42.130;24.746;2023-01-10T07:22:52;223.00;;;77.67;;
8319;SDS011;4197;42.130;24.746;2023-01-10T07:25:22;203.03;;;75.57;;
8319;SDS011;4197;42.130;24.746;2023-01-10T07:27:50;225.27;;;77.33;;
8319;SDS011;4197;42.130;24.746;2023-01-10T07:30:20;191.63;;;68.20;;
8319;SDS011;4197;42.130;24.746;2023-01-10T07:32:55;196.50;;;71.43;;
8319;SDS011;4197;42.130;24.746;2023-01-10T07:35:24;201.87;;;71.53;;
8319;SDS011;4197;42.130;24.746;2023-01-10T07:37:53;221.20;;;77.87;;
8319;SDS011;4197;42.130;24.746;2023-01-10T07:40:25;228.77;;;76.93;;
8319;SDS011;4197;42.130;24.746;2023-01-10T07:42:54;216.67;;;77.47;;
8319;SDS011;4197;42.130;24.746;2023-01-10T07:45:23;218.00;;;75.43;;
8319;SDS011;4197;42.130;24.746;2023-01-10T07:47:56;202.23;;;74.10;;
8319;SDS011;4197;42.130;24.746;2023-01-10T07:50:24;222.57;;;77.17;;
8319;SDS011;4197;42.130;24.746;2023-01-10T07:52:53;227.40;;;78.93;;
8319;SDS011;4197;42.130;24.746;2023-01-10T07:55:21;235.27;;;76.30;;
8319;SDS011;4197;42.130;24.746;2023-01-10T07:57:50;214.70;;;74.97;;
8319;SDS011;4197;42.130;24.746;2023-01-10T08:00:18;214.17;;;77.43;;
8319;SDS011;4197;42.130;24.746;2023-01-10T08:02:46;209.93;;;71.77;;
8319;SDS011;4197;42.130;24.746;2023-01-10T08:05:20;208.13;;;67.37;;
8319;SDS011;4197;42.130;24.746;2023-01-10T08:07:49;243.70;;;77.30;;
8319;SDS011;4197;42.130;24.746;2023-01-10T08:10:17;213.47;;;72.83;;
8319;SDS011;4197;42.130;24.746;2023-01-10T08:12:45;210.50;;;72.40;;
8319;SDS011;4197;42.130;24.746;2023-01-10T08:15:16;216.33;;;71.57;;
8319;SDS011;4197;42.130;24.746;2023-01-10T08:17:44;208.57;;;72.33;;
8319;SDS011;4197;42.130;24.746;2023-01-10T08:20:12;219.43;;;71.13;;
8319;SDS011;4197;42.130;24.746;2023-01-10T08:22:42;224.97;;;71.80;;
8319;SDS011;4197;42.130;24.746;2023-01-10T08:25:11;193.77;;;71.17;;
8319;SDS011;4197;42.130;24.746;2023-01-10T08:27:39;209.23;;;74.27;;
8319;SDS011;4197;42.130;24.746;2023-01-10T08:30:08;210.37;;;71.03;;
8319;SDS011;4197;42.130;24.746;2023-01-10T08:32:37;184.83;;;69.97;;
8319;SDS011;4197;42.130;24.746;2023-01-10T08:35:05;182.30;;;67.57;;
8319;SDS011;4197;42.130;24.746;2023-01-10T08:37:34;184.90;;;62.83;;
8319;SDS011;4197;42.130;24.746;2023-01-10T08:40:04;156.30;;;59.57;;
8319;SDS011;4197;42.130;24.746;2023-01-10T08:42:33;165.07;;;61.13;;
8319;SDS011;4197;42.130;24.746;2023-01-10T08:45:02;162.63;;;59.60;;
8319;SDS011;4197;42.130;24.746;2023-01-10T08:47:30;147.67;;;57.13;;
8319;SDS011;4197;42.130;24.746;2023-01-10T08:50:01;152.47;;;58.93;;
8319;SDS011;4197;42.130;24.746;2023-01-10T08:54:59;150.10;;;54.63;;
8319;SDS011;4197;42.130;24.746;2023-01-10T08:57:29;126.93;;;48.17;;
8319;SDS011;4197;42.130;24.746;2023-01-10T08:59:57;122.77;;;46.77;;
8319;SDS011;4197;42.130;24.746;2023-01-10T09:02:27;121.90;;;48.60;;
8319;SDS011;4197;42.130;24.746;2023-01-10T09:04:55;118.80;;;46.03;;
8319;SDS011;4197;42.130;24.746;2023-01-10T09:07:23;117.03;;;47.90;;
8319;SDS011;4197;42.130;24.746;2023-01-10T09:09:51;112.80;;;47.23;;
8319;SDS011;4197;42.130;24.746;2023-01-10T09:12:20;126.03;;;47.50;;
8319;SDS011;4197;42.130;24.746;2023-01-10T09:15:07;116.37;;;42.17;;
8319;SDS011;4197;42.130;24.746;2023-01-10T09:17:36;120.33;;;45.80;;
8319;SDS011;4197;42.130;24.746;2023-01-10T09:20:05;111.80;;;45.70;;
8319;SDS011;4197;42.130;24.746;2023-01-10T09:22:35;108.17;;;46.53;;
8319;SDS011;4197;42.130;24.746;2023-01-10T09:25:04;112.53;;;45.67;;
8319;SDS011;4197;42.130;24.746;2023-01-10T09:27:33;114.77;;;46.30;;
8319;SDS011;4197;42.130;24.746;2023-01-10T09:30:01;103.13;;;41.67;;
8319;SDS011;4197;42.130;24.746;2023-01-10T09:32:32;107.00;;;44.17;;
8319;SDS011;4197;42.130;24.746;2023-01-10T09:35:00;114.70;;;44.53;;
8319;SDS011;4197;42.130;24.746;2023-01-10T09:37:28;100.97;;;42.87;;
8319;SDS011;4197;42.130;24.746;2023-01-10T09:39:59;107.17;;;43.23;;
8319;SDS011;4197;42.130;24.746;2023-01-10T09:42:34;113.67;;;46.57;;
8319;SDS011;4197;42.130;24.746;2023-01-10T09:45:17;105.73;;;42.83;;
8319;SDS011;4197;42.130;24.746;2023-01-10T09:47:52;102.87;;;47.50;;
8319;SDS011;4197;42.130;24.746;2023-01-10T09:50:27;97.27;;;43.63;;
8319;SDS011;4197;42.130;24.746;2023-01-10T09:53:03;105.00;;;44.23;;
8319;SDS011;4197;42.130;24.746;2023-01-10T09:55:37;108.30;;;45.23;;
8319;SDS011;4197;42.130;24.746;2023-01-10T09:58:06;124.63;;;46.70;;
8319;SDS011;4197;42.130;24.746;2023-01-10T10:00:40;114.53;;;46.37;;
8319;SDS011;4197;42.130;24.746;2023-01-10T10:03:16;96.90;;;43.90;;
8319;SDS011;4197;42.130;24.746;2023-01-10T10:05:49;97.53;;;44.87;;
8319;SDS011;4197;42.130;24.746;2023-01-10T10:08:23;96.87;;;43.20;;
8319;SDS011;4197;42.130;24.746;2023-01-10T10:10:57;105.63;;;45.80;;
8319;SDS011;4197;42.130;24.746;2023-01-10T10:13:39;101.53;;;46.17;;
8319;SDS011;4197;42.130;24.746;2023-01-10T10:16:20;102.30;;;44.47;;
8319;SDS011;4197;42.130;24.746;2023-01-10T10:19:00;96.87;;;47.07;;
8319;SDS011;4197;42.130;24.746;2023-01-10T10:21:39;101.50;;;46.50;;
8319;SDS011;4197;42.130;24.746;2023-01-10T10:24:19;111.80;;;46.70;;
8319;SDS011;4197;42.130;24.746;2023-01-10T10:26:57;101.93;;;45.83;;
8319;SDS011;4197;42.130;24.746;2023-01-10T10:29:39;103.83;;;44.87;;
8319;SDS011;4197;42.130;24.746;2023-01-10T10:35:14;109.07;;;47.80;;
8319;SDS011;4197;42.130;24.746;2023-01-10T10:37:49;105.20;;;47.40;;
8319;SDS011;4197;42.130;24.746;2023-01-10T10:40:20;107.50;;;46.10;;
8319;SDS011;4197;42.130;24.746;2023-01-10T10:42:51;112.27;;;47.10;;
8319;SDS011;4197;42.130;24.746;2023-01-10T10:45:23;116.97;;;48.30;;
8319;SDS011;4197;42.130;24.746;2023-01-10T10:48:00;106.23;;;44.97;;
8319;SDS011;4197;42.130;24.746;2023-01-10T10:50:45;110.07;;;44.77;;
8319;SDS011;4197;42.130;24.746;2023-01-10T10:53:18;106.23;;;46.57;;
8319;SDS011;4197;42.130;24.746;2023-01-10T10:55:46;108.17;;;44.13;;
8319;SDS011;4197;42.130;24.746;2023-01-10T10:58:15;102.27;;;43.03;;
8319;SDS011;4197;42.130;24.746;2023-01-10T11:00:44;96.87;;;43.63;;
8319;SDS011;4197;42.130;24.746;2023-01-10T11:03:17;102.63;;;45.80;;
8319;SDS011;4197;42.130;24.746;2023-01-10T11:05:53;108.13;;;44.47;;
8319;SDS011;4197;42.130;24.746;2023-01-10T11:08:22;106.63;;;46.43;;
8319;SDS011;4197;42.130;24.746;2023-01-10T11:10:53;103.80;;;45.40;;
8319;SDS011;4197;42.130;24.746;2023-01-10T11:13:26;111.70;;;45.23;;
8319;SDS011;4197;42.130;24.746;2023-01-10T11:16:03;104.97;;;43.93;;
8319;SDS011;4197;42.130;24.746;2023-01-10T11:18:33;119.90;;;46.80;;
8319;SDS011;4197;42.130;24.746;2023-01-10T11:21:06;119.87;;;47.40;;
8319;SDS011;4197;42.130;24.746;2023-01-10T11:23:42;113.37;;;47.47;;
8319;SDS011;4197;42.130;24.746;2023-01-10T11:26:23;123.40;;;47.70;;
8319;SDS011;4197;42.130;24.746;2023-01-10T11:29:02;127.33;;;49.63;;
8319;SDS011;4197;42.130;24.746;2023-01-10T11:31:33;105.33;;;49.13;;
8319;SDS011;4197;42.130;24.746;2023-01-10T11:34:04;123.23;;;52.60;;
8319;SDS011;4197;42.130;24.746;2023-01-10T11:36:52;118.00;;;50.80;;
8319;SDS011;4197;42.130;24.746;2023-01-10T11:39:22;137.43;;;53.97;;
8319;SDS011;4197;42.130;24.746;2023-01-10T11:41:50;140.70;;;60.00;;
8319;SDS011;4197;42.130;24.746;2023-01-10T11:44:22;137.13;;;59.40;;
8319;SDS011;4197;42.130;24.746;2023-01-10T11:46:53;152.47;;;60.33;;
8319;SDS011;4197;42.130;24.746;2023-01-10T11:49:27;152.57;;;61.97;;
8319;SDS011;4197;42.130;24.746;2023-01-10T11:52:01;145.53;;;59.47;;
8319;SDS011;4197;42.130;24.746;2023-01-10T11:54:31;136.67;;;59.30;;
8319;SDS011;4197;42.130;24.746;2023-01-10T11:57:02;143.10;;;59.20;;
8319;SDS011;4197;42.130;24.746;2023-01-10T11:59:33;146.57;;;58.67;;
8319;SDS011;4197;42.130;24.746;2023-01-10T12:02:09;140.10;;;56.97;;
8319;SDS011;4197;42.130;24.746;2023-01-10T12:04:42;134.30;;;58.70;;
8319;SDS011;4197;42.130;24.746;2023-01-10T12:07:13;130.23;;;53.70;;
8319;SDS011;4197;42.130;24.746;2023-01-10T12:09:46;118.33;;;50.90;;
8319;SDS011;4197;42.130;24.746;2023-01-10T12:12:23;120.27;;;54.17;;
8319;SDS011;4197;42.130;24.746;2023-01-10T12:14:52;123.20;;;56.10;;
8319;SDS011;4197;42.130;24.746;2023-01-10T12:17:22;119.33;;;51.20;;
8319;SDS011;4197;42.130;24.746;2023-01-10T12:19:53;111.10;;;47.70;;
8319;SDS011;4197;42.130;24.746;2023-01-10T12:22:28;106.77;;;45.57;;
8319;SDS011;4197;42.130;24.746;2023-01-10T12:24:59;90.77;;;42.17;;
8319;SDS011;4197;42.130;24.746;2023-01-10T12:27:32;89.33;;;41.50;;
8319;SDS011;4197;42.130;24.746;2023-01-10T12:30:03;109.43;;;46.27;;
8319;SDS011;4197;42.130;24.746;2023-01-10T12:32:35;88.23;;;40.77;;
8319;SDS011;4197;42.130;24.746;2023-01-10T12:35:09;89.77;;;41.60;;
8319;SDS011;4197;42.130;24.746;2023-01-10T12:37:46;94.13;;;43.70;;
8319;SDS011;4197;42.130;24.746;2023-01-10T12:40:20;104.57;;;45.20;;
8319;SDS011;4197;42.130;24.746;2023-01-10T12:42:56;96.97;;;45.23;;
8319;SDS011;4197;42.130;24.746;2023-01-10T12:45:49;93.10;;;42.97;;
8319;SDS011;4197;42.130;24.746;2023-01-10T12:48:23;92.57;;;44.57;;
8319;SDS011;4197;42.130;24.746;2023-01-10T12:51:00;83.23;;;39.30;;
8319;SDS011;4197;42.130;24.746;2023-01-10T12:53:35;77.77;;;38.63;;
8319;SDS011;4197;42.130;24.746;2023-01-10T12:56:10;75.27;;;38.57;;
8319;SDS011;4197;42.130;24.746;2023-01-10T12:58:42;79.93;;;37.53;;
8319;SDS011;4197;42.130;24.746;2023-01-10T13:01:13;79.40;;;38.93;;
8319;SDS011;4197;42.130;24.746;2023-01-10T13:03:45;83.33;;;39.77;;
8319;SDS011;4197;42.130;24.746;2023-01-10T13:06:21;90.53;;;41.33;;
8319;SDS011;4197;42.130;24.746;2023-01-10T13:08:57;88.93;;;44.57;;
8319;SDS011;4197;42.130;24.746;2023-01-10T13:11:31;92.27;;;41.47;;
8319;SDS011;4197;42.130;24.746;2023-01-10T13:14:03;85.43;;;41.37;;
8319;SDS011;4197;42.130;24.746;2023-01-10T13:16:39;80.60;;;42.03;;
8319;SDS011;4197;42.130;24.746;2023-01-10T13:19:25;82.33;;;41.10;;
8319;SDS011;4197;42.130;24.746;2023-01-10T13:24:55;85.77;;;44.53;;
8319;SDS011;4197;42.130;24.746;2023-01-10T13:27:28;76.70;;;40.87;;
8319;SDS011;4197;42.130;24.746;2023-01-10T13:29:57;85.73;;;40.97;;
8319;SDS011;4197;42.130;24.746;2023-01-10T13:32:27;83.23;;;41.93;;
8319;SDS011;4197;42.130;24.746;2023-01-10T13:35:08;83.07;;;40.97;;
8319;SDS011;4197;42.130;24.746;2023-01-10T13:37:40;74.80;;;38.90;;
8319;SDS011;4197;42.130;24.746;2023-01-10T13:40:18;60.40;;;33.13;;
8319;SDS011;4197;42.130;24.746;2023-01-10T13:45:48;64.37;;;34.90;;
8319;SDS011;4197;42.130;24.746;2023-01-10T13:54:55;68.17;;;38.03;;
8319;SDS011;4197;42.130;24.746;2023-01-10T14:03:45;60.40;;;32.20;;
8319;SDS011;4197;42.130;24.746;2023-01-10T14:06:19;61.13;;;33.47;;
8319;SDS011;4197;42.130;24.746;2023-01-10T14:09:04;65.90;;;35.60;;
8319;SDS011;4197;42.130;24.746;2023-01-10T14:11:55;69.13;;;36.90;;
8319;SDS011;4197;42.130;24.746;2023-01-10T14:14:27;68.30;;;36.57;;
8319;SDS011;4197;42.130;24.746;2023-01-10T14:17:09;63.53;;;36.53;;
8319;SDS011;4197;42.130;24.746;2023-01-10T14:19:48;69.03;;;39.73;;
8319;SDS011;4197;42.130;24.746;2023-01-10T14:22:44;71.17;;;39.50;;
8319;SDS011;4197;42.130;24.746;2023-01-10T14:25:24;70.10;;;39.00;;
8319;SDS011;4197;42.130;24.746;2023-01-10T14:27:54;66.10;;;38.00;;
8319;SDS011;4197;42.130;24.746;2023-01-10T14:30:26;67.43;;;36.67;;
8319;SDS011;4197;42.130;24.746;2023-01-10T14:32:59;64.83;;;34.77;;
8319;SDS011;4197;42.130;24.746;2023-01-10T14:35:35;58.20;;;35.33;;
8319;SDS011;4197;42.130;24.746;2023-01-10T14:38:06;62.80;;;32.03;;
8319;SDS011;4197;42.130;24.746;2023-01-10T14:40:45;64.30;;;35.23;;
8319;SDS011;4197;42.130;24.746;2023-01-10T14:43:18;60.53;;;34.13;;
8319;SDS011;4197;42.130;24.746;2023-01-10T14:45:59;54.37;;;31.67;;
8319;SDS011;4197;42.130;24.746;2023-01-10T14:48:31;61.73;;;33.23;;
8319;SDS011;4197;42.130;24.746;2023-01-10T14:51:08;57.27;;;29.80;;
8319;SDS011;4197;42.130;24.746;2023-01-10T14:53:43;57.90;;;32.00;;
8319;SDS011;4197;42.130;24.746;2023-01-10T14:56:18;55.90;;;31.80;;
8319;SDS011;4197;42.130;24.746;2023-01-10T14:58:48;55.87;;;30.90;;
8319;SDS011;4197;42.130;24.746;2023-01-10T15:01:20;50.77;;;30.00;;
8319;SDS011;4197;42.130;24.746;2023-01-10T15:03:51;52.37;;;30.60;;
8319;SDS011;4197;42.130;24.746;2023-01-10T15:06:20;58.70;;;30.50;;
8319;SDS011;4197;42.130;24.746;2023-01-10T15:08:54;55.27;;;31.77;;
8319;SDS011;4197;42.130;24.746;2023-01-10T15:11:24;55.83;;;31.80;;
8319;SDS011;4197;42.130;24.746;2023-01-10T15:13:55;57.53;;;31.40;;
8319;SDS011;4197;42.130;24.746;2023-01-10T15:16:30;60.73;;;31.27;;
8319;SDS011;4197;42.130;24.746;2023-01-10T15:19:00;49.07;;;28.73;;
8319;SDS011;4197;42.130;24.746;2023-01-10T15:21:28;49.07;;;28.57;;